KABE/ABE METAR and TAF weather

Enter ICAO airport designator
Station Type Date Time Source
KABE METAR 2018/07/21 21:51 UTC NOAA

KABE 212151Z 08008KT 5SM -RA SCT055 BKN065 OVC110 20/16 A2997 RMK AO2 SLP148 P0007 T02000161


Station Type Date Time Source
KABE Decoded METAR 2018/07/21 21:51 UTC NOAA

LEHIGH VALLEY INTERNATIONAL AIRPORT, PA, United States (KABE) 40-39N 075-27W 114M
Jul 21, 2018 - 05:51 PM EDT / 2018.07.21 2151 UTC
Wind: from the E (080 degrees) at 9 MPH (8 KT):0
Visibility: 5 mile(s):0
Sky conditions: overcast
Weather: light rain
Precipitation last hour: 0.07 inches
Temperature: 68.0 F (20.0 C)
Dew Point: 61.0 F (16.1 C)
Relative Humidity: 78%
Pressure (altimeter): 29.97 in. Hg (1014 hPa)
ob: KABE 212151Z 08008KT 5SM -RA SCT055 BKN065 OVC110 20/16 A2997 RMK AO2 SLP148 P0007 T02000161
cycle: 22

Station Type Date Time Source
KABE TAF 2018/07/21 21:09 UTC NOAA

TAF
AMD KABE 212107Z 2121/2218 09010G18KT 6SM -RA OVC050
TEMPO 2122/2201 4SM RA SCT025 OVC035
FM220100 06015G25KT 3SM +RA OVC015 WS020/08045KT
FM220500 08015G25KT 3SM +RA OVC008 WS020/12040KT
FM220800 08014G20KT 5SM -RA OVC007
FM221000 12012KT P6SM OVC006
FM221500 15008KT P6SM -SHRA BKN015


Example: see airport list